sensor_id;sensor_type;location;lat;lon;timestamp;temperature;humidity
52285;DHT22;38238;53.304;6.606;2023-02-15T00:00:20;2.70;99.90
52285;DHT22;38238;53.304;6.606;2023-02-15T00:02:46;2.70;99.90
52285;DHT22;38238;53.304;6.606;2023-02-15T00:05:11;2.60;99.90
52285;DHT22;38238;53.304;6.606;2023-02-15T00:07:37;3.20;99.90
52285;DHT22;38238;53.304;6.606;2023-02-15T00:10:03;2.50;99.90
52285;DHT22;38238;53.304;6.606;2023-02-15T00:12:29;2.40;99.90
52285;DHT22;38238;53.304;6.606;2023-02-15T00:14:55;2.40;99.90
52285;DHT22;38238;53.304;6.606;2023-02-15T00:17:21;2.70;99.90
52285;DHT22;38238;53.304;6.606;2023-02-15T00:19:46;2.40;99.90
52285;DHT22;38238;53.304;6.606;2023-02-15T00:22:12;2.30;99.90
52285;DHT22;38238;53.304;6.606;2023-02-15T00:24:38;2.30;99.90
52285;DHT22;38238;53.304;6.606;2023-02-15T00:27:03;2.30;99.90
52285;DHT22;38238;53.304;6.606;2023-02-15T00:29:29;2.70;99.90
52285;DHT22;38238;53.304;6.606;2023-02-15T00:31:55;2.20;99.90
52285;DHT22;38238;53.304;6.606;2023-02-15T00:34:23;2.30;99.90
52285;DHT22;38238;53.304;6.606;2023-02-15T00:36:50;2.30;99.90
52285;DHT22;38238;53.304;6.606;2023-02-15T00:39:16;2.30;99.90
52285;DHT22;38238;53.304;6.606;2023-02-15T00:41:42;2.60;99.90
52285;DHT22;38238;53.304;6.606;2023-02-15T00:44:09;3.30;99.90
52285;DHT22;38238;53.304;6.606;2023-02-15T00:46:35;2.30;99.90
52285;DHT22;38238;53.304;6.606;2023-02-15T00:49:01;2.30;99.90
52285;DHT22;38238;53.304;6.606;2023-02-15T00:51:27;2.20;99.90
52285;DHT22;38238;53.304;6.606;2023-02-15T00:53:53;3.10;99.90
52285;DHT22;38238;53.304;6.606;2023-02-15T00:56:19;2.20;99.90
52285;DHT22;38238;53.304;6.606;2023-02-15T00:58:45;2.90;99.90
52285;DHT22;38238;53.304;6.606;2023-02-15T01:01:13;2.20;99.90
52285;DHT22;38238;53.304;6.606;2023-02-15T01:03:39;2.20;99.90
52285;DHT22;38238;53.304;6.606;2023-02-15T01:06:07;2.60;99.90
52285;DHT22;38238;53.304;6.606;2023-02-15T01:08:33;2.10;99.90
52285;DHT22;38238;53.304;6.606;2023-02-15T01:11:06;2.10;99.90
52285;DHT22;38238;53.304;6.606;2023-02-15T01:13:33;2.10;99.90
52285;DHT22;38238;53.304;6.606;2023-02-15T01:15:58;2.30;99.90
52285;DHT22;38238;53.304;6.606;2023-02-15T01:18:24;2.50;99.90
52285;DHT22;38238;53.304;6.606;2023-02-15T01:20:50;2.00;99.90
52285;DHT22;38238;53.304;6.606;2023-02-15T01:23:15;1.90;99.90
52285;DHT22;38238;53.304;6.606;2023-02-15T01:25:41;1.80;99.90
52285;DHT22;38238;53.304;6.606;2023-02-15T01:28:07;1.80;99.90
52285;DHT22;38238;53.304;6.606;2023-02-15T01:30:33;1.90;99.90
52285;DHT22;38238;53.304;6.606;2023-02-15T01:32:59;1.90;99.90
52285;DHT22;38238;53.304;6.606;2023-02-15T01:35:27;2.20;99.90
52285;DHT22;38238;53.304;6.606;2023-02-15T01:37:53;1.80;99.90
52285;DHT22;38238;53.304;6.606;2023-02-15T01:40:19;1.80;99.90
52285;DHT22;38238;53.304;6.606;2023-02-15T01:42:45;1.80;99.90
52285;DHT22;38238;53.304;6.606;2023-02-15T01:45:19;1.80;99.90
52285;DHT22;38238;53.304;6.606;2023-02-15T01:50:38;1.70;99.90
52285;DHT22;38238;53.304;6.606;2023-02-15T01:55:40;1.70;99.90
52285;DHT22;38238;53.304;6.606;2023-02-15T01:58:07;1.80;99.90
52285;DHT22;38238;53.304;6.606;2023-02-15T02:00:34;2.70;99.90
52285;DHT22;38238;53.304;6.606;2023-02-15T02:03:00;1.90;99.90
52285;DHT22;38238;53.304;6.606;2023-02-15T02:05:27;2.90;99.90
52285;DHT22;38238;53.304;6.606;2023-02-15T02:07:57;1.90;99.90
52285;DHT22;38238;53.304;6.606;2023-02-15T02:10:24;2.50;99.90
52285;DHT22;38238;53.304;6.606;2023-02-15T02:12:54;1.80;99.90
52285;DHT22;38238;53.304;6.606;2023-02-15T02:15:27;1.80;99.90
52285;DHT22;38238;53.304;6.606;2023-02-15T02:18:04;3.00;99.90
52285;DHT22;38238;53.304;6.606;2023-02-15T02:23:47;1.80;99.90
52285;DHT22;38238;53.304;6.606;2023-02-15T02:46:05;1.60;99.90
52285;DHT22;38238;53.304;6.606;2023-02-15T02:48:33;2.50;99.90
52285;DHT22;38238;53.304;6.606;2023-02-15T02:50:59;1.50;99.90
52285;DHT22;38238;53.304;6.606;2023-02-15T02:53:25;1.50;99.90
52285;DHT22;38238;53.304;6.606;2023-02-15T02:56:09;1.50;99.90
52285;DHT22;38238;53.304;6.606;2023-02-15T02:58:43;2.60;99.90
52285;DHT22;38238;53.304;6.606;2023-02-15T03:01:26;1.50;99.90
52285;DHT22;38238;53.304;6.606;2023-02-15T03:04:03;1.50;99.90
52285;DHT22;38238;53.304;6.606;2023-02-15T03:06:44;1.40;99.90
52285;DHT22;38238;53.304;6.606;2023-02-15T03:09:21;1.30;99.90
52285;DHT22;38238;53.304;6.606;2023-02-15T03:11:48;1.30;99.90
52285;DHT22;38238;53.304;6.606;2023-02-15T03:14:15;2.20;99.90
52285;DHT22;38238;53.304;6.606;2023-02-15T03:16:46;1.20;99.90
52285;DHT22;38238;53.304;6.606;2023-02-15T03:19:20;1.20;99.90
52285;DHT22;38238;53.304;6.606;2023-02-15T03:21:50;1.30;99.90
52285;DHT22;38238;53.304;6.606;2023-02-15T03:24:45;1.20;99.90
52285;DHT22;38238;53.304;6.606;2023-02-15T03:27:19;1.20;99.90
52285;DHT22;38238;53.304;6.606;2023-02-15T03:29:50;1.20;99.90
52285;DHT22;38238;53.304;6.606;2023-02-15T03:32:17;1.10;99.90
52285;DHT22;38238;53.304;6.606;2023-02-15T03:34:43;1.10;99.90
52285;DHT22;38238;53.304;6.606;2023-02-15T03:39:58;1.00;99.90
52285;DHT22;38238;53.304;6.606;2023-02-15T03:42:54;1.50;99.90
52285;DHT22;38238;53.304;6.606;2023-02-15T03:45:26;1.00;99.90
52285;DHT22;38238;53.304;6.606;2023-02-15T03:47:56;1.00;99.90
52285;DHT22;38238;53.304;6.606;2023-02-15T03:50:31;1.00;99.90
52285;DHT22;38238;53.304;6.606;2023-02-15T03:53:18;0.90;99.90
52285;DHT22;38238;53.304;6.606;2023-02-15T03:55:55;0.90;99.90
52285;DHT22;38238;53.304;6.606;2023-02-15T03:58:21;1.80;99.90
52285;DHT22;38238;53.304;6.606;2023-02-15T04:01:17;1.00;99.90
52285;DHT22;38238;53.304;6.606;2023-02-15T04:04:14;1.00;99.90
52285;DHT22;38238;53.304;6.606;2023-02-15T04:06:41;1.00;99.90
52285;DHT22;38238;53.304;6.606;2023-02-15T04:09:07;1.00;99.90
52285;DHT22;38238;53.304;6.606;2023-02-15T04:11:51;1.00;99.90
52285;DHT22;38238;53.304;6.606;2023-02-15T04:14:17;1.00;99.90
52285;DHT22;38238;53.304;6.606;2023-02-15T04:17:01;0.90;99.90
52285;DHT22;38238;53.304;6.606;2023-02-15T04:19:26;0.90;99.90
52285;DHT22;38238;53.304;6.606;2023-02-15T04:22:10;0.90;99.90
52285;DHT22;38238;53.304;6.606;2023-02-15T04:24:54;1.00;99.90
52285;DHT22;38238;53.304;6.606;2023-02-15T04:27:51;1.50;99.90
52285;DHT22;38238;53.304;6.606;2023-02-15T04:30:18;1.10;99.90
52285;DHT22;38238;53.304;6.606;2023-02-15T04:32:45;0.90;99.90
52285;DHT22;38238;53.304;6.606;2023-02-15T04:35:11;0.90;99.90
52285;DHT22;38238;53.304;6.606;2023-02-15T04:37:38;0.90;99.90
52285;DHT22;38238;53.304;6.606;2023-02-15T04:40:05;0.90;99.90
52285;DHT22;38238;53.304;6.606;2023-02-15T04:42:32;0.90;99.90
52285;DHT22;38238;53.304;6.606;2023-02-15T04:44:58;0.90;99.90
52285;DHT22;38238;53.304;6.606;2023-02-15T04:47:23;0.70;99.90
52285;DHT22;38238;53.304;6.606;2023-02-15T04:49:49;0.70;99.90
52285;DHT22;38238;53.304;6.606;2023-02-15T04:52:15;1.30;99.90
52285;DHT22;38238;53.304;6.606;2023-02-15T04:54:42;0.70;99.90
52285;DHT22;38238;53.304;6.606;2023-02-15T04:57:08;1.30;99.90
52285;DHT22;38238;53.304;6.606;2023-02-15T04:59:33;1.60;99.90
52285;DHT22;38238;53.304;6.606;2023-02-15T05:01:59;0.60;99.90
52285;DHT22;38238;53.304;6.606;2023-02-15T05:04:25;0.50;99.90
52285;DHT22;38238;53.304;6.606;2023-02-15T05:06:50;0.50;99.90
52285;DHT22;38238;53.304;6.606;2023-02-15T05:09:16;0.50;99.90
52285;DHT22;38238;53.304;6.606;2023-02-15T05:11:42;0.60;99.90
52285;DHT22;38238;53.304;6.606;2023-02-15T05:14:08;0.60;99.90
52285;DHT22;38238;53.304;6.606;2023-02-15T05:16:34;0.60;99.90
52285;DHT22;38238;53.304;6.606;2023-02-15T05:19:00;0.60;99.90
52285;DHT22;38238;53.304;6.606;2023-02-15T05:21:26;0.50;99.90
52285;DHT22;38238;53.304;6.606;2023-02-15T05:23:51;0.50;99.90
52285;DHT22;38238;53.304;6.606;2023-02-15T05:26:19;0.40;99.90
52285;DHT22;38238;53.304;6.606;2023-02-15T05:29:04;0.40;99.90
52285;DHT22;38238;53.304;6.606;2023-02-15T05:31:31;0.40;99.90
52285;DHT22;38238;53.304;6.606;2023-02-15T05:33:57;0.30;99.90
52285;DHT22;38238;53.304;6.606;2023-02-15T05:36:23;0.30;99.90
52285;DHT22;38238;53.304;6.606;2023-02-15T05:38:48;0.30;99.90
52285;DHT22;38238;53.304;6.606;2023-02-15T05:41:14;1.40;99.90
52285;DHT22;38238;53.304;6.606;2023-02-15T05:43:40;0.40;99.90
52285;DHT22;38238;53.304;6.606;2023-02-15T05:46:06;0.40;99.90
52285;DHT22;38238;53.304;6.606;2023-02-15T05:48:32;0.40;99.90
52285;DHT22;38238;53.304;6.606;2023-02-15T05:51:04;1.00;99.90
52285;DHT22;38238;53.304;6.606;2023-02-15T05:53:32;0.50;99.90
52285;DHT22;38238;53.304;6.606;2023-02-15T05:55:58;0.50;99.90
52285;DHT22;38238;53.304;6.606;2023-02-15T05:58:26;0.50;99.90
52285;DHT22;38238;53.304;6.606;2023-02-15T06:00:53;0.50;99.90
52285;DHT22;38238;53.304;6.606;2023-02-15T06:03:18;0.50;99.90
52285;DHT22;38238;53.304;6.606;2023-02-15T06:05:44;0.50;99.90
52285;DHT22;38238;53.304;6.606;2023-02-15T06:08:10;0.50;99.90
52285;DHT22;38238;53.304;6.606;2023-02-15T06:10:35;0.40;99.90
52285;DHT22;38238;53.304;6.606;2023-02-15T06:13:01;1.90;99.90
52285;DHT22;38238;53.304;6.606;2023-02-15T06:15:27;0.40;99.90
52285;DHT22;38238;53.304;6.606;2023-02-15T06:17:53;0.50;99.90
52285;DHT22;38238;53.304;6.606;2023-02-15T06:20:18;0.50;99.90
52285;DHT22;38238;53.304;6.606;2023-02-15T06:22:44;0.50;99.90
52285;DHT22;38238;53.304;6.606;2023-02-15T06:25:10;0.50;99.90
52285;DHT22;38238;53.304;6.606;2023-02-15T06:27:37;0.70;99.90
52285;DHT22;38238;53.304;6.606;2023-02-15T06:30:04;0.40;99.90
52285;DHT22;38238;53.304;6.606;2023-02-15T06:32:31;0.30;99.90
52285;DHT22;38238;53.304;6.606;2023-02-15T06:34:57;0.80;99.90
52285;DHT22;38238;53.304;6.606;2023-02-15T06:37:22;0.30;99.90
52285;DHT22;38238;53.304;6.606;2023-02-15T06:39:48;0.30;99.90
52285;DHT22;38238;53.304;6.606;2023-02-15T06:42:14;0.40;99.90
52285;DHT22;38238;53.304;6.606;2023-02-15T06:44:40;0.40;99.90
52285;DHT22;38238;53.304;6.606;2023-02-15T06:47:05;0.40;99.90
52285;DHT22;38238;53.304;6.606;2023-02-15T06:49:31;0.40;99.90
52285;DHT22;38238;53.304;6.606;2023-02-15T06:51:56;0.40;99.90
52285;DHT22;38238;53.304;6.606;2023-02-15T06:54:22;0.40;99.90
52285;DHT22;38238;53.304;6.606;2023-02-15T06:56:48;0.50;99.90
52285;DHT22;38238;53.304;6.606;2023-02-15T06:59:13;0.40;99.90
52285;DHT22;38238;53.304;6.606;2023-02-15T07:01:39;0.50;99.90
52285;DHT22;38238;53.304;6.606;2023-02-15T07:04:05;0.50;99.90
52285;DHT22;38238;53.304;6.606;2023-02-15T07:06:34;0.80;99.90
52285;DHT22;38238;53.304;6.606;2023-02-15T07:09:00;0.40;99.90
52285;DHT22;38238;53.304;6.606;2023-02-15T07:11:26;0.40;99.90
52285;DHT22;38238;53.304;6.606;2023-02-15T07:14:10;0.40;99.90
52285;DHT22;38238;53.304;6.606;2023-02-15T07:16:36;0.50;99.90
52285;DHT22;38238;53.304;6.606;2023-02-15T07:19:02;0.50;99.90
52285;DHT22;38238;53.304;6.606;2023-02-15T07:21:28;0.50;99.90
52285;DHT22;38238;53.304;6.606;2023-02-15T07:23:56;0.90;99.90
52285;DHT22;38238;53.304;6.606;2023-02-15T07:26:22;1.80;99.90
52285;DHT22;38238;53.304;6.606;2023-02-15T07:28:48;0.50;99.90
52285;DHT22;38238;53.304;6.606;2023-02-15T07:31:13;0.50;99.90
52285;DHT22;38238;53.304;6.606;2023-02-15T07:33:39;0.50;99.90
52285;DHT22;38238;53.304;6.606;2023-02-15T07:36:05;0.50;99.90
52285;DHT22;38238;53.304;6.606;2023-02-15T07:38:36;0.50;99.90
52285;DHT22;38238;53.304;6.606;2023-02-15T07:41:08;1.70;99.90
52285;DHT22;38238;53.304;6.606;2023-02-15T07:43:36;0.60;99.90
52285;DHT22;38238;53.304;6.606;2023-02-15T07:46:05;0.70;99.90
52285;DHT22;38238;53.304;6.606;2023-02-15T07:48:31;0.70;99.90
52285;DHT22;38238;53.304;6.606;2023-02-15T07:51:01;0.90;99.90
52285;DHT22;38238;53.304;6.606;2023-02-15T07:53:28;1.20;99.90
52285;DHT22;38238;53.304;6.606;2023-02-15T07:55:54;0.80;99.90
52285;DHT22;38238;53.304;6.606;2023-02-15T07:58:20;0.80;99.90
52285;DHT22;38238;53.304;6.606;2023-02-15T08:00:46;0.90;99.90
52285;DHT22;38238;53.304;6.606;2023-02-15T08:03:26;0.90;99.90
52285;DHT22;38238;53.304;6.606;2023-02-15T08:05:59;1.00;99.90
52285;DHT22;38238;53.304;6.606;2023-02-15T08:08:27;1.00;99.90
52285;DHT22;38238;53.304;6.606;2023-02-15T08:14:13;1.00;99.90
52285;DHT22;38238;53.304;6.606;2023-02-15T08:16:40;1.00;99.90
52285;DHT22;38238;53.304;6.606;2023-02-15T08:19:24;1.00;99.90
52285;DHT22;38238;53.304;6.606;2023-02-15T08:21:52;1.10;99.90
52285;DHT22;38238;53.304;6.606;2023-02-15T08:24:20;1.10;99.90
52285;DHT22;38238;53.304;6.606;2023-02-15T08:26:47;1.20;99.90
52285;DHT22;38238;53.304;6.606;2023-02-15T08:29:14;1.20;99.90
52285;DHT22;38238;53.304;6.606;2023-02-15T08:31:41;1.40;99.90
52285;DHT22;38238;53.304;6.606;2023-02-15T08:34:08;1.30;99.90
52285;DHT22;38238;53.304;6.606;2023-02-15T08:36:34;1.90;99.90
52285;DHT22;38238;53.304;6.606;2023-02-15T08:39:02;1.40;99.90
52285;DHT22;38238;53.304;6.606;2023-02-15T08:41:30;1.40;99.90
52285;DHT22;38238;53.304;6.606;2023-02-15T08:43:58;1.50;99.90
52285;DHT22;38238;53.304;6.606;2023-02-15T08:46:29;2.90;99.90
52285;DHT22;38238;53.304;6.606;2023-02-15T08:48:55;1.60;99.90
52285;DHT22;38238;53.304;6.606;2023-02-15T08:51:35;2.00;99.90
52285;DHT22;38238;53.304;6.606;2023-02-15T08:54:04;2.50;99.90
52285;DHT22;38238;53.304;6.606;2023-02-15T08:56:34;1.90;99.90
52285;DHT22;38238;53.304;6.606;2023-02-15T08:59:02;2.00;99.90
52285;DHT22;38238;53.304;6.606;2023-02-15T09:01:30;2.90;99.90
52285;DHT22;38238;53.304;6.606;2023-02-15T09:03:58;2.20;99.90
52285;DHT22;38238;53.304;6.606;2023-02-15T09:06:24;2.30;99.90
52285;DHT22;38238;53.304;6.606;2023-02-15T09:08:51;2.50;99.90
52285;DHT22;38238;53.304;6.606;2023-02-15T09:11:20;2.60;99.90
52285;DHT22;38238;53.304;6.606;2023-02-15T09:13:54;2.70;99.90
52285;DHT22;38238;53.304;6.606;2023-02-15T09:16:23;2.90;99.90
52285;DHT22;38238;53.304;6.606;2023-02-15T09:18:49;3.00;99.90
52285;DHT22;38238;53.304;6.606;2023-02-15T09:21:17;3.10;99.90
52285;DHT22;38238;53.304;6.606;2023-02-15T09:23:46;3.20;99.90
52285;DHT22;38238;53.304;6.606;2023-02-15T09:26:17;3.30;99.90
52285;DHT22;38238;53.304;6.606;2023-02-15T09:28:43;3.30;99.90
52285;DHT22;38238;53.304;6.606;2023-02-15T09:31:42;3.40;99.90
52285;DHT22;38238;53.304;6.606;2023-02-15T09:34:09;3.60;99.90
52285;DHT22;38238;53.304;6.606;2023-02-15T09:36:37;3.60;99.90
52285;DHT22;38238;53.304;6.606;2023-02-15T09:55:40;4.40;99.90
52285;DHT22;38238;53.304;6.606;2023-02-15T10:01:07;4.70;99.90
52285;DHT22;38238;53.304;6.606;2023-02-15T10:03:53;4.80;99.90
52285;DHT22;38238;53.304;6.606;2023-02-15T10:14:56;6.40;99.90
52285;DHT22;38238;53.304;6.606;2023-02-15T10:26:20;7.10;99.90
52285;DHT22;38238;53.304;6.606;2023-02-15T10:29:21;7.90;99.90
52285;DHT22;38238;53.304;6.606;2023-02-15T10:34:37;9.10;99.90
52285;DHT22;38238;53.304;6.606;2023-02-15T10:39:46;10.80;99.90
52285;DHT22;38238;53.304;6.606;2023-02-15T10:50:36;10.70;99.90
52285;DHT22;38238;53.304;6.606;2023-02-15T10:56:20;11.50;99.90
52285;DHT22;38238;53.304;6.606;2023-02-15T11:01:38;12.10;99.90
52285;DHT22;38238;53.304;6.606;2023-02-15T11:06:35;13.00;99.90
52285;DHT22;38238;53.304;6.606;2023-02-15T11:09:12;13.10;99.90
52285;DHT22;38238;53.304;6.606;2023-02-15T11:11:42;13.10;99.90
52285;DHT22;38238;53.304;6.606;2023-02-15T11:16:43;12.00;99.90
52285;DHT22;38238;53.304;6.606;2023-02-15T11:21:48;11.80;99.90
52285;DHT22;38238;53.304;6.606;2023-02-15T11:24:18;11.80;99.90
52285;DHT22;38238;53.304;6.606;2023-02-15T11:27:22;12.00;99.90
52285;DHT22;38238;53.304;6.606;2023-02-15T11:32:40;12.30;99.90
52285;DHT22;38238;53.304;6.606;2023-02-15T11:38:23;11.80;99.90
52285;DHT22;38238;53.304;6.606;2023-02-15T11:40:48;11.80;99.90
52285;DHT22;38238;53.304;6.606;2023-02-15T11:43:34;11.80;99.90
52285;DHT22;38238;53.304;6.606;2023-02-15T11:46:01;11.90;99.90
52285;DHT22;38238;53.304;6.606;2023-02-15T11:48:30;11.80;99.90
52285;DHT22;38238;53.304;6.606;2023-02-15T11:50:56;11.90;99.90
52285;DHT22;38238;53.304;6.606;2023-02-15T11:53:23;11.90;99.90
52285;DHT22;38238;53.304;6.606;2023-02-15T11:56:03;12.00;99.90
52285;DHT22;38238;53.304;6.606;2023-02-15T12:01:36;11.80;99.90
52285;DHT22;38238;53.304;6.606;2023-02-15T12:10:02;12.30;99.90
52285;DHT22;38238;53.304;6.606;2023-02-15T12:12:37;12.60;99.90
52285;DHT22;38238;53.304;6.606;2023-02-15T12:15:08;12.60;99.90
52285;DHT22;38238;53.304;6.606;2023-02-15T12:17:53;12.90;99.90
52285;DHT22;38238;53.304;6.606;2023-02-15T12:20:21;13.20;99.90
52285;DHT22;38238;53.304;6.606;2023-02-15T12:22:54;13.60;99.90
52285;DHT22;38238;53.304;6.606;2023-02-15T12:25:39;13.70;99.90
52285;DHT22;38238;53.304;6.606;2023-02-15T12:28:25;13.80;99.90
52285;DHT22;38238;53.304;6.606;2023-02-15T12:30:53;13.80;99.90
52285;DHT22;38238;53.304;6.606;2023-02-15T12:36:15;14.00;99.90
52285;DHT22;38238;53.304;6.606;2023-02-15T12:38:43;14.00;99.90
52285;DHT22;38238;53.304;6.606;2023-02-15T12:41:22;13.90;99.90
52285;DHT22;38238;53.304;6.606;2023-02-15T12:44:06;13.80;99.90
52285;DHT22;38238;53.304;6.606;2023-02-15T12:46:40;13.70;99.90
52285;DHT22;38238;53.304;6.606;2023-02-15T12:54:40;14.30;99.90
52285;DHT22;38238;53.304;6.606;2023-02-15T12:57:25;14.10;99.90
52285;DHT22;38238;53.304;6.606;2023-02-15T13:03:21;13.80;99.90
52285;DHT22;38238;53.304;6.606;2023-02-15T13:05:54;13.60;99.90
52285;DHT22;38238;53.304;6.606;2023-02-15T13:08:32;13.30;99.90
52285;DHT22;38238;53.304;6.606;2023-02-15T13:11:30;13.00;99.90
52285;DHT22;38238;53.304;6.606;2023-02-15T13:14:29;12.60;99.90
52285;DHT22;38238;53.304;6.606;2023-02-15T13:16:58;12.30;99.90
52285;DHT22;38238;53.304;6.606;2023-02-15T13:21:54;11.90;99.90
52285;DHT22;38238;53.304;6.606;2023-02-15T13:26:49;11.40;99.90
52285;DHT22;38238;53.304;6.606;2023-02-15T13:29:30;11.30;99.90
52285;DHT22;38238;53.304;6.606;2023-02-15T13:31:59;11.20;99.90
52285;DHT22;38238;53.304;6.606;2023-02-15T13:34:33;11.20;99.90
52285;DHT22;38238;53.304;6.606;2023-02-15T13:45:43;11.20;99.90
52285;DHT22;38238;53.304;6.606;2023-02-15T13:51:45;11.20;99.90
52285;DHT22;38238;53.304;6.606;2023-02-15T13:57:08;11.10;99.90
52285;DHT22;38238;53.304;6.606;2023-02-15T13:59:48;11.10;99.90
52285;DHT22;38238;53.304;6.606;2023-02-15T14:05:00;11.10;99.90
52285;DHT22;38238;53.304;6.606;2023-02-15T14:19:03;11.00;99.90
52285;DHT22;38238;53.304;6.606;2023-02-15T14:21:56;11.00;99.90
52285;DHT22;38238;53.304;6.606;2023-02-15T14:24:38;11.00;99.90
52285;DHT22;38238;53.304;6.606;2023-02-15T14:27:55;10.90;99.90
52285;DHT22;38238;53.304;6.606;2023-02-15T14:30:22;10.90;99.90
52285;DHT22;38238;53.304;6.606;2023-02-15T14:32:53;10.90;99.90
52285;DHT22;38238;53.304;6.606;2023-02-15T14:35:26;10.80;99.90
52285;DHT22;38238;53.304;6.606;2023-02-15T14:41:28;10.80;99.90
52285;DHT22;38238;53.304;6.606;2023-02-15T14:46:45;10.80;99.90
52285;DHT22;38238;53.304;6.606;2023-02-15T14:49:25;10.80;99.90
52285;DHT22;38238;53.304;6.606;2023-02-15T14:51:55;10.80;99.90
52285;DHT22;38238;53.304;6.606;2023-02-15T14:59:57;10.80;99.90
52285;DHT22;38238;53.304;6.606;2023-02-15T15:02:43;10.80;99.90
52285;DHT22;38238;53.304;6.606;2023-02-15T15:05:34;10.70;99.90
52285;DHT22;38238;53.304;6.606;2023-02-15T15:08:03;10.70;99.90
52285;DHT22;38238;53.304;6.606;2023-02-15T15:10:37;10.60;99.90
52285;DHT22;38238;53.304;6.606;2023-02-15T15:15:55;10.60;99.90
52285;DHT22;38238;53.304;6.606;2023-02-15T15:18:44;10.60;99.90
52285;DHT22;38238;53.304;6.606;2023-02-15T15:21:10;10.50;99.90
52285;DHT22;38238;53.304;6.606;2023-02-15T15:23:43;10.50;99.90
52285;DHT22;38238;53.304;6.606;2023-02-15T15:26:23;10.40;99.90
52285;DHT22;38238;53.304;6.606;2023-02-15T15:31:18;10.40;99.90
52285;DHT22;38238;53.304;6.606;2023-02-15T15:34:09;10.30;99.90
52285;DHT22;38238;53.304;6.606;2023-02-15T15:48:26;10.10;99.90
52285;DHT22;38238;53.304;6.606;2023-02-15T15:50:54;10.10;99.90
52285;DHT22;38238;53.304;6.606;2023-02-15T15:53:24;10.00;99.90
52285;DHT22;38238;53.304;6.606;2023-02-15T15:55:55;10.00;99.90
52285;DHT22;38238;53.304;6.606;2023-02-15T15:58:23;9.90;99.90
52285;DHT22;38238;53.304;6.606;2023-02-15T16:00:52;9.90;99.90
52285;DHT22;38238;53.304;6.606;2023-02-15T16:03:21;9.90;99.90
52285;DHT22;38238;53.304;6.606;2023-02-15T16:05:47;9.80;99.90
52285;DHT22;38238;53.304;6.606;2023-02-15T16:10:51;9.90;99.90
52285;DHT22;38238;53.304;6.606;2023-02-15T16:13:17;9.60;99.90
52285;DHT22;38238;53.304;6.606;2023-02-15T16:15:45;9.60;99.90
52285;DHT22;38238;53.304;6.606;2023-02-15T16:18:16;9.50;99.90
52285;DHT22;38238;53.304;6.606;2023-02-15T16:20:58;9.50;99.90
52285;DHT22;38238;53.304;6.606;2023-02-15T16:28:32;9.30;99.90
52285;DHT22;38238;53.304;6.606;2023-02-15T16:31:12;9.20;99.90
52285;DHT22;38238;53.304;6.606;2023-02-15T16:33:39;9.20;99.90
52285;DHT22;38238;53.304;6.606;2023-02-15T16:36:10;9.40;99.90
52285;DHT22;38238;53.304;6.606;2023-02-15T16:41:09;9.00;99.90
52285;DHT22;38238;53.304;6.606;2023-02-15T16:43:37;9.10;99.90
52285;DHT22;38238;53.304;6.606;2023-02-15T16:46:08;8.80;99.90
52285;DHT22;38238;53.304;6.606;2023-02-15T16:48:40;8.80;99.90
52285;DHT22;38238;53.304;6.606;2023-02-15T16:51:07;8.70;99.90
52285;DHT22;38238;53.304;6.606;2023-02-15T16:53:33;9.40;99.90
52285;DHT22;38238;53.304;6.606;2023-02-15T16:56:01;8.60;99.90
52285;DHT22;38238;53.304;6.606;2023-02-15T17:01:02;8.50;99.90
52285;DHT22;38238;53.304;6.606;2023-02-15T17:03:28;8.40;99.90
52285;DHT22;38238;53.304;6.606;2023-02-15T17:05:56;8.30;99.90
52285;DHT22;38238;53.304;6.606;2023-02-15T17:08:34;8.30;99.90
52285;DHT22;38238;53.304;6.606;2023-02-15T17:13:31;8.10;99.90
52285;DHT22;38238;53.304;6.606;2023-02-15T17:18:32;8.00;99.90
52285;DHT22;38238;53.304;6.606;2023-02-15T17:21:01;8.00;99.90
52285;DHT22;38238;53.304;6.606;2023-02-15T17:23:39;8.00;99.90
52285;DHT22;38238;53.304;6.606;2023-02-15T17:26:22;8.00;99.90
52285;DHT22;38238;53.304;6.606;2023-02-15T17:29:14;8.00;99.90
52285;DHT22;38238;53.304;6.606;2023-02-15T17:31:47;8.00;99.90
52285;DHT22;38238;53.304;6.606;2023-02-15T17:34:44;8.00;99.90
52285;DHT22;38238;53.304;6.606;2023-02-15T17:38:18;8.00;99.90
52285;DHT22;38238;53.304;6.606;2023-02-15T17:40:22;8.00;99.90
52285;DHT22;38238;53.304;6.606;2023-02-15T17:42:48;8.00;99.90
52285;DHT22;38238;53.304;6.606;2023-02-15T17:45:14;7.90;99.90
52285;DHT22;38238;53.304;6.606;2023-02-15T17:47:40;7.90;99.90
52285;DHT22;38238;53.304;6.606;2023-02-15T17:50:07;7.90;99.90
52285;DHT22;38238;53.304;6.606;2023-02-15T17:52:33;7.90;99.90
52285;DHT22;38238;53.304;6.606;2023-02-15T17:55:08;7.80;99.90
52285;DHT22;38238;53.304;6.606;2023-02-15T17:57:56;8.10;99.90
52285;DHT22;38238;53.304;6.606;2023-02-15T18:00:22;7.80;99.90
52285;DHT22;38238;53.304;6.606;2023-02-15T18:03:09;7.80;99.90
52285;DHT22;38238;53.304;6.606;2023-02-15T18:05:54;7.80;99.90
52285;DHT22;38238;53.304;6.606;2023-02-15T18:08:39;7.80;99.90
52285;DHT22;38238;53.304;6.606;2023-02-15T18:11:23;7.80;99.90
52285;DHT22;38238;53.304;6.606;2023-02-15T18:14:02;7.70;99.90
52285;DHT22;38238;53.304;6.606;2023-02-15T18:16:33;7.80;99.90
52285;DHT22;38238;53.304;6.606;2023-02-15T18:19:01;7.80;99.90
52285;DHT22;38238;53.304;6.606;2023-02-15T18:21:26;7.80;99.90
52285;DHT22;38238;53.304;6.606;2023-02-15T18:23:52;8.30;99.90
52285;DHT22;38238;53.304;6.606;2023-02-15T18:26:21;7.80;99.90
52285;DHT22;38238;53.304;6.606;2023-02-15T18:28:48;7.80;99.90
52285;DHT22;38238;53.304;6.606;2023-02-15T18:31:14;7.70;99.90
52285;DHT22;38238;53.304;6.606;2023-02-15T18:33:45;7.70;99.90
52285;DHT22;38238;53.304;6.606;2023-02-15T18:36:25;7.70;99.90
52285;DHT22;38238;53.304;6.606;2023-02-15T18:38:53;7.70;99.90
52285;DHT22;38238;53.304;6.606;2023-02-15T18:41:20;7.70;99.90
52285;DHT22;38238;53.304;6.606;2023-02-15T18:43:47;7.70;99.90
52285;DHT22;38238;53.304;6.606;2023-02-15T18:46:14;7.60;99.90
52285;DHT22;38238;53.304;6.606;2023-02-15T18:48:40;7.60;99.90
52285;DHT22;38238;53.304;6.606;2023-02-15T18:51:24;7.60;99.90
52285;DHT22;38238;53.304;6.606;2023-02-15T18:53:51;7.60;99.90
52285;DHT22;38238;53.304;6.606;2023-02-15T18:56:20;7.60;99.90
52285;DHT22;38238;53.304;6.606;2023-02-15T18:58:47;7.60;99.90
52285;DHT22;38238;53.304;6.606;2023-02-15T19:01:18;7.60;99.90
52285;DHT22;38238;53.304;6.606;2023-02-15T19:03:51;7.60;99.90
52285;DHT22;38238;53.304;6.606;2023-02-15T19:06:18;7.50;99.90
52285;DHT22;38238;53.304;6.606;2023-02-15T19:08:46;7.50;99.90
52285;DHT22;38238;53.304;6.606;2023-02-15T19:11:21;7.50;99.90
52285;DHT22;38238;53.304;6.606;2023-02-15T19:13:48;7.40;99.90
52285;DHT22;38238;53.304;6.606;2023-02-15T19:16:27;7.40;99.90
52285;DHT22;38238;53.304;6.606;2023-02-15T19:18:53;7.40;99.90
52285;DHT22;38238;53.304;6.606;2023-02-15T19:21:18;7.50;99.90
52285;DHT22;38238;53.304;6.606;2023-02-15T19:23:54;7.30;99.90
52285;DHT22;38238;53.304;6.606;2023-02-15T19:26:21;7.30;99.90
52285;DHT22;38238;53.304;6.606;2023-02-15T19:28:47;7.30;99.90
52285;DHT22;38238;53.304;6.606;2023-02-15T19:31:12;7.20;99.90